createdAt,value
2024-01-03T00:01:22.585Z,98053.72
2024-01-03T00:03:49.673Z,98099.41
2024-01-03T00:06:16.783Z,98082.81
2024-01-03T00:08:44.123Z,98077.91
2024-01-03T00:11:19.062Z,98100.59
2024-01-03T00:14:04.738Z,98092.19
2024-01-03T00:16:31.601Z,98093.31
2024-01-03T00:19:00.536Z,98076.38
2024-01-03T00:21:29.568Z,98091.66
2024-01-03T00:24:01.877Z,98084.88
2024-01-03T00:26:30.455Z,98076.44
2024-01-03T00:28:57.603Z,98079.72
2024-01-03T00:31:38.297Z,98069.31
2024-01-03T00:34:25.342Z,98063.84
2024-01-03T00:36:53.821Z,98037.34
2024-01-03T00:39:26.724Z,98055.94
2024-01-03T00:41:54.027Z,98063.63
2024-01-03T00:44:20.693Z,98071.53
2024-01-03T00:46:47.617Z,98062.50
2024-01-03T00:49:16.411Z,98070.16
2024-01-03T00:51:49.708Z,98072.91
2024-01-03T00:54:17.687Z,98064.72
2024-01-03T00:56:46.888Z,98064.72
2024-01-03T00:59:14.831Z,98068.03
2024-01-03T01:01:42.262Z,98072.38
2024-01-03T01:04:09.345Z,98057.91
2024-01-03T01:06:36.158Z,98067.22
2024-01-03T01:09:05.487Z,98059.84
2024-01-03T01:11:32.372Z,98057.97
2024-01-03T01:13:59.139Z,98067.25
2024-01-03T01:16:26.177Z,98061.75
2024-01-03T01:18:53.809Z,98062.88
2024-01-03T01:21:20.562Z,98064.78
2024-01-03T01:23:48.506Z,98063.13
2024-01-03T01:26:15.395Z,98034.72
2024-01-03T01:28:44.101Z,98062.88
2024-01-03T01:31:10.779Z,98056.31
2024-01-03T01:33:37.622Z,98064.72
2024-01-03T01:36:05.141Z,98062.59
2024-01-03T01:38:32.460Z,98054.94
2024-01-03T01:40:59.181Z,98059.56
2024-01-03T01:43:25.884Z,98060.97
2024-01-03T01:45:52.826Z,98055.25
2024-01-03T01:48:20.936Z,98050.06
2024-01-03T01:50:47.652Z,98041.84
2024-01-03T01:53:15.218Z,98056.88
2024-01-03T01:55:42.899Z,98066.69
2024-01-03T01:58:10.500Z,98067.22
2024-01-03T02:00:40.060Z,98051.38
2024-01-03T02:03:08.869Z,98066.97
2024-01-03T02:05:39.068Z,98065.59
2024-01-03T02:08:10.484Z,98063.13
2024-01-03T02:10:37.865Z,98072.91
2024-01-03T02:13:04.664Z,98067.44
2024-01-03T02:15:31.194Z,98057.91
2024-01-03T02:17:58.359Z,98042.38
2024-01-03T02:20:26.090Z,98043.44
2024-01-03T02:22:53.269Z,98039.09
2024-01-03T02:25:19.900Z,98035.31
2024-01-03T02:27:47.318Z,98047.56
2024-01-03T02:30:14.079Z,98042.66
2024-01-03T02:32:40.750Z,98039.09
2024-01-03T02:35:07.927Z,98034.44
2024-01-03T02:37:35.196Z,98046.44
2024-01-03T02:40:01.979Z,98035.00
2024-01-03T02:42:28.577Z,98028.69
2024-01-03T02:44:55.321Z,98048.34
2024-01-03T02:47:22.137Z,98032.25
2024-01-03T02:49:48.976Z,98033.91
2024-01-03T02:52:15.754Z,98040.16
2024-01-03T02:54:42.427Z,98039.13
2024-01-03T02:57:09.100Z,98054.88
2024-01-03T02:59:35.743Z,98032.47
2024-01-03T03:02:02.301Z,98053.97
2024-01-03T03:04:29.062Z,98051.59
2024-01-03T03:06:55.596Z,98014.94
2024-01-03T03:09:22.994Z,98052.53
2024-01-03T03:11:49.839Z,98054.22
2024-01-03T03:14:16.927Z,98059.78
2024-01-03T03:16:43.624Z,98061.50
2024-01-03T03:19:10.687Z,98062.59
2024-01-03T03:21:37.265Z,98068.25
2024-01-03T03:24:04.107Z,98048.94
2024-01-03T03:26:30.804Z,98058.09
2024-01-03T03:28:57.436Z,98054.41
2024-01-03T03:31:24.057Z,98043.50
2024-01-03T03:33:50.908Z,98051.13
2024-01-03T03:36:17.850Z,98045.94
2024-01-03T03:38:44.689Z,98049.69
2024-01-03T03:41:12.636Z,98050.59
2024-01-03T03:43:40.682Z,98049.69
2024-01-03T03:46:08.366Z,98040.13
2024-01-03T03:48:35.798Z,98045.09
2024-01-03T03:51:03.164Z,98023.38
2024-01-03T03:53:29.857Z,98049.34
2024-01-03T03:55:56.543Z,98052.59
2024-01-03T03:58:23.232Z,98059.13
2024-01-03T04:00:50.017Z,98056.13
2024-01-03T04:03:16.716Z,98046.78
2024-01-03T04:05:43.714Z,98043.88
2024-01-03T04:08:10.771Z,98049.06
2024-01-03T04:10:38.362Z,98013.81
2024-01-03T04:13:05.494Z,98042.22
2024-01-03T04:15:32.230Z,98012.22
2024-01-03T04:17:59.204Z,98014.94
2024-01-03T04:20:25.899Z,98030.81
2024-01-03T04:22:52.661Z,98022.94
2024-01-03T04:25:19.310Z,98032.69
2024-01-03T04:27:45.944Z,98019.91
2024-01-03T04:30:13.006Z,98011.69
2024-01-03T04:32:39.639Z,98021.09
2024-01-03T04:35:06.608Z,98008.13
2024-01-03T04:37:34.461Z,98016.47
2024-01-03T04:40:01.363Z,98014.47
2024-01-03T04:42:28.154Z,98021.59
2024-01-03T04:44:55.060Z,98019.25
2024-01-03T04:47:21.947Z,98022.81
2024-01-03T04:49:48.750Z,98029.59
2024-01-03T04:52:15.457Z,98031.97
2024-01-03T04:54:42.088Z,98011.97
2024-01-03T04:57:09.114Z,98007.94
2024-01-03T04:59:36.469Z,98025.75
2024-01-03T05:02:03.545Z,98023.25
2024-01-03T05:04:30.141Z,98018.66
2024-01-03T05:06:57.413Z,98026.88
2024-01-03T05:09:24.726Z,98019.38
2024-01-03T05:11:51.735Z,98040.19
2024-01-03T05:14:18.430Z,98023.97
2024-01-03T05:16:45.128Z,98040.69
2024-01-03T05:19:11.921Z,98036.03
2024-01-03T05:21:38.686Z,98017.25
2024-01-03T05:24:05.550Z,98035.00
2024-01-03T05:26:32.736Z,98035.72
2024-01-03T05:28:59.354Z,98026.22
2024-01-03T05:31:26.011Z,98028.97
2024-01-03T05:33:53.115Z,98024.69
2024-01-03T05:36:19.830Z,98040.22
2024-01-03T05:38:46.492Z,98031.97
2024-01-03T05:41:13.319Z,98033.75
2024-01-03T05:43:39.956Z,98032.56
2024-01-03T05:46:07.230Z,98042.00
2024-01-03T05:48:34.122Z,98043.97
2024-01-03T05:51:01.085Z,98010.84
2024-01-03T05:53:27.865Z,98029.91
2024-01-03T05:55:54.542Z,98041.56
2024-01-03T05:58:21.152Z,98007.13
2024-01-03T06:00:48.025Z,98022.34
2024-01-03T06:03:14.830Z,98043.28
2024-01-03T06:05:41.666Z,98040.38
2024-01-03T06:08:09.398Z,98043.09
2024-01-03T06:10:36.275Z,98036.53
2024-01-03T06:13:03.032Z,98045.78
2024-01-03T06:15:29.736Z,98057.38
2024-01-03T06:17:56.471Z,98062.81
2024-01-03T06:20:24.348Z,98049.50
2024-01-03T06:22:51.350Z,98050.00
2024-01-03T06:25:18.022Z,98055.44
2024-01-03T06:27:45.016Z,98054.94
2024-01-03T06:30:12.281Z,98060.38
2024-01-03T06:32:39.182Z,98067.69
2024-01-03T06:35:06.952Z,98078.16
2024-01-03T06:37:33.666Z,98080.44
2024-01-03T06:40:00.389Z,98044.97
2024-01-03T06:42:27.043Z,98077.25
2024-01-03T06:44:54.873Z,98062.28
2024-01-03T06:47:21.801Z,98071.88
2024-01-03T06:49:48.543Z,98072.03
2024-01-03T06:52:15.170Z,98081.03
2024-01-03T06:54:41.746Z,98077.47
2024-01-03T06:57:08.418Z,98082.38
2024-01-03T06:59:38.318Z,98083.38
2024-01-03T07:02:05.247Z,98085.34
2024-01-03T07:04:31.916Z,98082.19
2024-01-03T07:06:58.571Z,98108.47
2024-01-03T07:09:25.440Z,98088.13
2024-01-03T07:11:52.137Z,98114.81
2024-01-03T07:14:18.895Z,98098.50
2024-01-03T07:16:47.655Z,98115.47
2024-01-03T07:19:15.584Z,98109.47
2024-01-03T07:21:42.329Z,98095.34
2024-01-03T07:24:09.074Z,98099.22
2024-01-03T07:26:36.427Z,98112.66
2024-01-03T07:29:03.059Z,98110.13
2024-01-03T07:31:29.642Z,98110.94
2024-01-03T07:33:56.360Z,98096.47
2024-01-03T07:36:23.072Z,98122.13
2024-01-03T07:38:49.731Z,98134.50
2024-01-03T07:41:22.378Z,98123.81
2024-01-03T07:43:49.016Z,98132.53
2024-01-03T07:46:16.844Z,98112.19
2024-01-03T07:48:43.607Z,98136.31
2024-01-03T07:51:11.976Z,98139.56
2024-01-03T07:53:38.648Z,98133.31
2024-01-03T07:56:09.460Z,98138.34
2024-01-03T07:58:36.106Z,98140.38
2024-01-03T08:01:02.835Z,98141.06
2024-01-03T08:03:29.516Z,98152.47
2024-01-03T08:05:56.524Z,98150.63
2024-01-03T08:08:23.279Z,98140.22
2024-01-03T08:10:49.963Z,98141.41
2024-01-03T08:13:16.638Z,98149.06
2024-01-03T08:15:43.377Z,98131.34
2024-01-03T08:18:10.506Z,98138.50
2024-01-03T08:20:37.676Z,98141.75
2024-01-03T08:23:04.605Z,98140.56
2024-01-03T08:25:31.420Z,98149.66
2024-01-03T08:27:58.144Z,98146.31
2024-01-03T08:30:24.979Z,98136.84
2024-01-03T08:32:51.718Z,98132.91
2024-01-03T08:35:18.409Z,98135.69
2024-01-03T08:37:45.128Z,98154.31
2024-01-03T08:40:12.082Z,98154.47
2024-01-03T08:42:38.806Z,98151.00
2024-01-03T08:45:05.713Z,98167.34
2024-01-03T08:47:32.446Z,98165.97
2024-01-03T08:49:59.351Z,98163.28
2024-01-03T08:52:26.002Z,98176.13
2024-01-03T08:54:52.583Z,98148.06
2024-01-03T08:57:19.359Z,98166.84
2024-01-03T08:59:46.027Z,98176.13
2024-01-03T09:02:12.882Z,98170.66
2024-01-03T09:04:39.470Z,98182.63
2024-01-03T09:07:06.195Z,98184.97
2024-01-03T09:09:32.891Z,98189.50
2024-01-03T09:11:59.651Z,98183.78
2024-01-03T09:14:26.444Z,98193.88
2024-01-03T09:16:53.174Z,98189.50
2024-01-03T09:19:19.970Z,98208.44
2024-01-03T09:21:47.160Z,98179.06
2024-01-03T09:24:14.299Z,98209.34
2024-01-03T09:26:41.095Z,98208.91
2024-01-03T09:29:08.269Z,98204.84
2024-01-03T09:31:41.667Z,98209.78
2024-01-03T09:34:08.429Z,98212.94
2024-01-03T09:36:35.197Z,98210.09
2024-01-03T09:39:01.863Z,98207.91
2024-01-03T09:41:30.253Z,98225.41
2024-01-03T09:43:58.042Z,98226.25
2024-01-03T09:46:24.799Z,98233.91
2024-01-03T09:48:51.861Z,98229.81
2024-01-03T09:51:20.828Z,98240.97
2024-01-03T09:53:52.115Z,98242.81
2024-01-03T09:56:18.849Z,98224.81
2024-01-03T09:58:47.409Z,98224.34
2024-01-03T10:01:14.041Z,98230.19
2024-01-03T10:03:40.702Z,98237.09
2024-01-03T10:06:19.267Z,98202.09
2024-01-03T10:09:03.003Z,98241.19
2024-01-03T10:11:30.352Z,98251.00
2024-01-03T10:13:58.053Z,98229.97
2024-01-03T10:16:29.640Z,98242.25
2024-01-03T10:19:12.215Z,98244.19
2024-01-03T10:21:52.703Z,98242.03
2024-01-03T10:24:21.038Z,98233.25
2024-01-03T10:26:48.333Z,98234.91
2024-01-03T10:29:20.218Z,98251.06
2024-01-03T10:31:48.215Z,98247.13
2024-01-03T10:34:22.288Z,98212.94
2024-01-03T10:36:50.950Z,98252.06
2024-01-03T10:39:19.816Z,98265.16
2024-01-03T10:41:48.480Z,98261.69
2024-01-03T10:44:16.886Z,98265.75
2024-01-03T10:46:44.643Z,98251.97
2024-01-03T10:49:11.730Z,98272.53
2024-01-03T10:51:40.666Z,98265.72
2024-01-03T10:54:15.710Z,98257.81
2024-01-03T10:56:49.952Z,98234.28
2024-01-03T10:59:18.357Z,98246.06
2024-01-03T11:01:51.716Z,98248.47
2024-01-03T11:05:06.650Z,98263.19
2024-01-03T11:07:43.958Z,98260.78
2024-01-03T11:10:11.317Z,98276.59
2024-01-03T11:12:37.928Z,98263.72
2024-01-03T11:15:37.423Z,98255.28
2024-01-03T11:18:09.806Z,98259.41
2024-01-03T11:20:38.985Z,98279.38
2024-01-03T11:23:06.796Z,98264.09
2024-01-03T11:25:50.569Z,98267.38
2024-01-03T11:28:33.946Z,98272.75
2024-01-03T11:31:04.018Z,98268.50
2024-01-03T11:33:33.349Z,98276.91
2024-01-03T11:36:00.723Z,98278.81
2024-01-03T11:38:40.534Z,98284.25
2024-01-03T11:41:15.431Z,98281.78
2024-01-03T11:43:41.997Z,98280.16
2024-01-03T11:46:09.259Z,98277.56
2024-01-03T11:48:40.597Z,98286.06
2024-01-03T11:51:25.069Z,98275.34
2024-01-03T11:53:53.019Z,98273.94
2024-01-03T11:56:27.642Z,98275.91
2024-01-03T11:58:58.953Z,98268.31
2024-01-03T12:01:25.742Z,98289.03
2024-01-03T12:04:08.213Z,98270.88
2024-01-03T12:06:35.014Z,98269.25
2024-01-03T12:09:03.776Z,98287.00
2024-01-03T12:11:31.614Z,98274.78
2024-01-03T12:13:58.328Z,98284.94
2024-01-03T12:16:25.590Z,98279.78
2024-01-03T12:18:54.823Z,98265.06
2024-01-03T12:21:21.696Z,98257.28
2024-01-03T12:24:03.106Z,98273.50
2024-01-03T12:26:30.342Z,98279.25
2024-01-03T12:29:03.244Z,98279.66
2024-01-03T12:31:30.113Z,98282.63
2024-01-03T12:34:07.514Z,98281.25
2024-01-03T12:36:34.420Z,98262.66
2024-01-03T12:39:01.705Z,98288.66
2024-01-03T12:41:28.541Z,98292.16
2024-01-03T12:43:55.290Z,98278.50
2024-01-03T12:46:22.008Z,98292.75
2024-01-03T12:48:48.876Z,98283.63
2024-01-03T12:51:15.618Z,98295.94
2024-01-03T12:53:42.571Z,98280.66
2024-01-03T12:56:09.330Z,98289.13
2024-01-03T12:58:35.876Z,98299.47
2024-01-03T13:01:02.906Z,98301.75
2024-01-03T13:03:30.020Z,98262.88
2024-01-03T13:05:56.859Z,98282.97
2024-01-03T13:08:23.687Z,98277.19
2024-01-03T13:10:50.369Z,98312.63
2024-01-03T13:13:17.160Z,98311.28
2024-01-03T13:15:47.361Z,98304.44
2024-01-03T13:18:14.655Z,98294.63
2024-01-03T13:20:41.887Z,98322.75
2024-01-03T13:23:09.215Z,98315.06
2024-01-03T13:25:36.052Z,98301.53
2024-01-03T13:28:02.696Z,98316.28
2024-01-03T13:30:30.232Z,98312.56
2024-01-03T13:32:57.187Z,98328.66
2024-01-03T13:35:24.095Z,98318.38
2024-01-03T13:37:51.047Z,98320.78
2024-01-03T13:40:19.177Z,98328.81
2024-01-03T13:42:46.075Z,98329.25
2024-01-03T13:45:13.054Z,98298.28
2024-01-03T13:47:39.786Z,98334.91
2024-01-03T13:50:06.824Z,98316.78
2024-01-03T13:52:34.560Z,98336.47
2024-01-03T13:55:02.285Z,98333.97
2024-01-03T13:57:29.008Z,98340.88
2024-01-03T13:59:55.835Z,98335.22
2024-01-03T14:02:22.593Z,98317.25
2024-01-03T14:04:49.194Z,98329.03
2024-01-03T14:07:15.881Z,98332.81
2024-01-03T14:09:42.553Z,98337.41
2024-01-03T14:12:09.352Z,98339.31
2024-01-03T14:14:37.463Z,98350.00
2024-01-03T14:17:05.556Z,98351.34
2024-01-03T14:19:32.235Z,98303.03
2024-01-03T14:22:01.077Z,98349.22
2024-01-03T14:24:27.918Z,98334.84
2024-01-03T14:26:55.015Z,98336.81
2024-01-03T14:29:22.350Z,98341.66
2024-01-03T14:31:49.197Z,98356.16
2024-01-03T14:34:16.314Z,98354.53
2024-01-03T14:36:42.992Z,98346.31
2024-01-03T14:39:09.952Z,98352.03
2024-01-03T14:41:36.886Z,98351.22
2024-01-03T14:44:06.122Z,98340.44
2024-01-03T14:46:35.961Z,98335.25
2024-01-03T14:49:02.904Z,98347.97
2024-01-03T14:51:29.789Z,98351.31
2024-01-03T14:53:58.242Z,98357.47
2024-01-03T14:56:27.358Z,98353.59
2024-01-03T14:58:54.021Z,98353.03
2024-01-03T15:01:20.662Z,98344.69
2024-01-03T15:03:48.279Z,98340.31
2024-01-03T15:06:19.508Z,98368.34
2024-01-03T15:08:46.548Z,98355.72
2024-01-03T15:11:13.167Z,98362.38
2024-01-03T15:13:40.933Z,98375.38
2024-01-03T15:16:08.404Z,98380.41
2024-01-03T15:18:35.162Z,98376.69
2024-01-03T15:21:03.812Z,98375.50
2024-01-03T15:23:30.872Z,98367.16
2024-01-03T15:25:59.381Z,98367.72
2024-01-03T15:28:28.529Z,98386.41
2024-01-03T15:30:55.324Z,98363.22
2024-01-03T15:33:41.580Z,98381.63
2024-01-03T15:36:08.542Z,98380.16
2024-01-03T15:38:35.208Z,98376.94
2024-01-03T15:41:03.591Z,98375.81
2024-01-03T15:43:30.210Z,98381.16
2024-01-03T15:45:56.828Z,98382.69
2024-01-03T15:48:23.615Z,98360.06
2024-01-03T15:50:50.313Z,98381.31
2024-01-03T15:53:16.915Z,98380.97
2024-01-03T15:55:43.550Z,98375.59
2024-01-03T15:58:10.138Z,98348.16
2024-01-03T16:00:38.431Z,98387.41
2024-01-03T16:03:07.078Z,98392.44
2024-01-03T16:05:34.079Z,98379.47
2024-01-03T16:08:00.751Z,98365.31
2024-01-03T16:10:29.850Z,98375.81
2024-01-03T16:12:56.510Z,98387.31
2024-01-03T16:15:23.172Z,98380.88
2024-01-03T16:17:49.943Z,98388.78
2024-01-03T16:20:16.745Z,98378.09
2024-01-03T16:22:43.450Z,98386.88
2024-01-03T16:25:12.359Z,98382.31
2024-01-03T16:27:39.929Z,98366.22
2024-01-03T16:30:06.727Z,98370.50
2024-01-03T16:32:34.032Z,98376.16
2024-01-03T16:35:01.072Z,98369.59
2024-01-03T16:37:29.097Z,98363.66
2024-01-03T16:39:57.128Z,98370.25
2024-01-03T16:42:23.730Z,98372.97
2024-01-03T16:44:50.446Z,98361.38
2024-01-03T16:47:17.147Z,98374.38
2024-01-03T16:49:45.829Z,98387.25
2024-01-03T16:52:12.740Z,98362.03
2024-01-03T16:54:39.405Z,98380.03
2024-01-03T16:57:06.821Z,98375.31
2024-01-03T16:59:35.581Z,98366.72
2024-01-03T17:02:03.109Z,98380.31
2024-01-03T17:04:29.844Z,98377.97
2024-01-03T17:06:56.523Z,98383.75
2024-01-03T17:09:23.794Z,98345.06
2024-01-03T17:11:50.565Z,98371.69
2024-01-03T17:14:17.470Z,98387.53
2024-01-03T17:16:44.526Z,98383.22
2024-01-03T17:19:11.586Z,98387.34
2024-01-03T17:21:38.496Z,98382.69
2024-01-03T17:24:06.958Z,98388.50
2024-01-03T17:26:36.878Z,98383.44
2024-01-03T17:29:05.519Z,98373.31
2024-01-03T17:31:35.806Z,98385.69
2024-01-03T17:34:03.152Z,98388.41
2024-01-03T17:36:30.239Z,98395.00
2024-01-03T17:38:56.980Z,98390.63
2024-01-03T17:41:26.866Z,98396.63
2024-01-03T17:43:57.229Z,98410.91
2024-01-03T17:46:24.186Z,98406.84
2024-01-03T17:48:52.874Z,98392.38
2024-01-03T17:51:22.270Z,98383.75
2024-01-03T17:53:55.616Z,98388.09
2024-01-03T17:56:29.369Z,98400.41
2024-01-03T17:58:57.229Z,98396.81
2024-01-03T18:01:24.407Z,98376.78
2024-01-03T18:03:52.164Z,98408.22
2024-01-03T18:06:19.777Z,98393.00
2024-01-03T18:08:46.786Z,98377.94
2024-01-03T18:11:13.868Z,98394.44
2024-01-03T18:13:40.497Z,98401.22
2024-01-03T18:16:07.245Z,98394.31
2024-01-03T18:18:34.053Z,98397.41
2024-01-03T18:21:01.035Z,98370.38
2024-01-03T18:23:30.806Z,98400.72
2024-01-03T18:25:57.660Z,98388.47
2024-01-03T18:28:24.507Z,98396.75
2024-01-03T18:30:51.354Z,98372.47
2024-01-03T18:33:18.558Z,98403.81
2024-01-03T18:35:45.402Z,98408.53
2024-01-03T18:38:12.640Z,98411.59
2024-01-03T18:40:39.822Z,98414.09
2024-01-03T18:43:16.106Z,98417.97
2024-01-03T18:45:47.098Z,98415.88
2024-01-03T18:48:14.093Z,98404.53
2024-01-03T18:50:41.043Z,98428.78
2024-01-03T18:53:07.769Z,98426.53
2024-01-03T18:55:34.545Z,98435.53
2024-01-03T18:58:01.149Z,98421.31
2024-01-03T19:00:29.691Z,98427.78
2024-01-03T19:02:56.521Z,98422.84
2024-01-03T19:05:24.597Z,98408.09
2024-01-03T19:07:51.376Z,98422.84
2024-01-03T19:10:18.832Z,98417.16
2024-01-03T19:12:45.382Z,98422.78
2024-01-03T19:15:13.676Z,98433.28
2024-01-03T19:17:40.668Z,98431.84
2024-01-03T19:20:08.084Z,98430.88
2024-01-03T19:22:37.300Z,98422.75
2024-01-03T19:25:04.791Z,98408.94
2024-01-03T19:27:32.418Z,98438.50
2024-01-03T19:30:02.362Z,98422.69
2024-01-03T19:32:29.797Z,98436.28
2024-01-03T19:34:56.695Z,98415.84
2024-01-03T19:37:23.477Z,98441.22
2024-01-03T19:39:50.379Z,98438.94
2024-01-03T19:42:17.868Z,98439.44
2024-01-03T19:44:44.594Z,98436.97
2024-01-03T19:47:12.254Z,98451.56
2024-01-03T19:49:39.092Z,98432.13
2024-01-03T19:52:06.023Z,98452.78
2024-01-03T19:54:32.775Z,98456.31
2024-01-03T19:56:59.785Z,98442.47
2024-01-03T19:59:26.329Z,98458.13
2024-01-03T20:01:52.943Z,98458.31
2024-01-03T20:04:21.149Z,98464.88
2024-01-03T20:06:48.167Z,98452.28
2024-01-03T20:09:14.866Z,98471.00
2024-01-03T20:11:49.504Z,98480.53
2024-01-03T20:14:16.407Z,98484.31
2024-01-03T20:16:43.269Z,98466.28
2024-01-03T20:19:10.735Z,98459.31
2024-01-03T20:21:42.214Z,98474.00
2024-01-03T20:24:09.323Z,98492.31
2024-01-03T20:26:38.913Z,98488.50
2024-01-03T20:29:05.764Z,98464.81
2024-01-03T20:31:32.377Z,98493.31
2024-01-03T20:33:59.690Z,98456.75
2024-01-03T20:36:26.521Z,98490.13
2024-01-03T20:38:57.241Z,98502.06
2024-01-03T20:41:23.995Z,98487.34
2024-01-03T20:43:50.751Z,98505.19
2024-01-03T20:46:17.490Z,98508.34
2024-01-03T20:48:44.258Z,98506.59
2024-01-03T20:51:18.109Z,98495.13
2024-01-03T20:53:45.317Z,98509.81
2024-01-03T20:56:12.044Z,98520.63
2024-01-03T20:58:41.874Z,98520.97
2024-01-03T21:01:09.378Z,98488.13
2024-01-03T21:03:40.477Z,98521.69
2024-01-03T21:06:08.145Z,98519.72
2024-01-03T21:08:38.540Z,98520.63
2024-01-03T21:11:07.904Z,98519.28
2024-01-03T21:13:35.725Z,98526.31
2024-01-03T21:16:02.670Z,98503.47
2024-01-03T21:18:29.748Z,98514.09
2024-01-03T21:20:56.656Z,98493.34
2024-01-03T21:23:23.372Z,98503.06
2024-01-03T21:25:50.220Z,98521.88
2024-01-03T21:28:16.911Z,98521.03
2024-01-03T21:30:43.868Z,98523.19
2024-01-03T21:33:10.713Z,98504.22
2024-01-03T21:35:37.560Z,98517.00
2024-01-03T21:38:04.421Z,98512.53
2024-01-03T21:40:31.086Z,98526.44
2024-01-03T21:42:57.675Z,98506.09
2024-01-03T21:45:24.424Z,98516.91
2024-01-03T21:47:51.174Z,98517.13
2024-01-03T21:50:18.020Z,98528.22
2024-01-03T21:52:47.595Z,98522.69
2024-01-03T21:55:14.454Z,98526.72
2024-01-03T21:57:41.133Z,98507.94
2024-01-03T22:00:08.848Z,98510.28
2024-01-03T22:02:39.308Z,98517.47
2024-01-03T22:05:08.376Z,98533.63
2024-01-03T22:07:34.978Z,98520.69
2024-01-03T22:10:01.634Z,98529.09
2024-01-03T22:12:28.277Z,98534.13
2024-01-03T22:14:55.091Z,98531.97
2024-01-03T22:17:21.681Z,98527.72
2024-01-03T22:19:48.417Z,98542.63
2024-01-03T22:22:15.052Z,98544.94
2024-01-03T22:24:41.690Z,98520.75
2024-01-03T22:27:08.537Z,98547.59
2024-01-03T22:29:35.327Z,98517.41
2024-01-03T22:32:01.954Z,98527.31
2024-01-03T22:34:30.322Z,98538.59
2024-01-03T22:36:57.388Z,98564.06
2024-01-03T22:39:24.015Z,98558.13
2024-01-03T22:41:50.684Z,98560.50
2024-01-03T22:44:17.344Z,98562.25
2024-01-03T22:46:47.818Z,98570.66
2024-01-03T22:49:16.580Z,98570.75
2024-01-03T22:51:43.838Z,98573.78
2024-01-03T22:54:10.885Z,98571.88
2024-01-03T22:56:38.804Z,98569.50
2024-01-03T22:59:06.230Z,98573.19
2024-01-03T23:01:35.920Z,98573.94
2024-01-03T23:04:03.552Z,98578.69
2024-01-03T23:06:30.632Z,98571.09
2024-01-03T23:08:57.290Z,98580.44
2024-01-03T23:11:23.910Z,98574.00
2024-01-03T23:13:50.464Z,98583.56
2024-01-03T23:16:19.787Z,98555.44
2024-01-03T23:18:46.665Z,98587.00
2024-01-03T23:21:20.847Z,98595.47
2024-01-03T23:23:47.952Z,98598.56
2024-01-03T23:26:16.524Z,98590.66
2024-01-03T23:28:43.869Z,98593.56
2024-01-03T23:31:10.903Z,98606.75
2024-01-03T23:33:37.679Z,98618.63
2024-01-03T23:36:04.848Z,98614.25
2024-01-03T23:38:31.596Z,98622.84
2024-01-03T23:40:58.255Z,98622.50
2024-01-03T23:43:25.043Z,98621.09
2024-01-03T23:45:51.646Z,98621.59
2024-01-03T23:48:18.436Z,98635.03
2024-01-03T23:50:45.167Z,98597.75
2024-01-03T23:53:12.018Z,98605.66
2024-01-03T23:55:38.618Z,98630.19
2024-01-03T23:58:07.060Z,98638.00
